Machala, Ecuador

10:36 AM -05 on March 29, 2017 (GMT -0500)
Machala, El Oro, Ecuador | | Change Station

Elev 20 ft 3.30 °S, 79.90 °W | Updated 11 minutes ago

Mostly Cloudy
Mostly Cloudy
84.4 °F
Feels Like 99 °F
N
2.0
Wind Variable Wind from WSW
Gusts 7.0 mph

Today
High -- | Low -- °F
--% Chance of Precip.
Yesterday
High -- | Low -- °F
Precip. -- in
Pressure 29.86 in
Visibility 6.2 miles
Clouds Few 3000 ft
Mostly Cloudy 17000 ft
Heat Index 99 °F
Dew Point 81 °F
Humidity 89%
Rainfall 0.14 in
Snow Depth Not available.
6:21 AM 6:26 PM
Waxing Crescent, 3% visible
METAR SERO 291500Z VRB02KT 9999 FEW030 BKN170 27/26 Q1011
Pressure 29.86 in
Visibility 6.2 miles
Clouds Few 3000 ft
Mostly Cloudy 17000 ft
Heat Index 99 °F
Dew Point 81 °F
Humidity 89%
Rainfall 0.14 in
Snow Depth Not available.
6:21 AM 6:26 PM
Waxing Crescent, 3% visible
METAR SERO 291500Z VRB02KT 9999 FEW030 BKN170 27/26 Q1011

Get Severe Weather Alerts

Thanks for signing up!

Be on the lookout for a verification email in your inbox.

You'll start receiving the daily forecast at 8 AM.

×

10-Day Weather Forecast

No radar image for this location.
×

Almanac

Astronomy

Mar. 29, 2017 Rise Set
Actual Time
Civil Twilight
Nautical Twilight
Astronomical Twilight
Moon
Length of Visible Light
Length of Day
Tomorrow will be .
, % of the Moon is Illuminated

Today's Extremes

Country Highs Country Lows

Community

WunderPhotos

Upload Photos

1,962,540 photos uploaded!

WunderBlog® & News

Nearby

Air Quality

  Air Quality AQ Index Pollutant
Not available.

Snow Depth

Station Depth Elevation

Earthquake Activity

City Distance Mag. Time & Date
Minimum magnitude displayed is 2.5.

Earthquake Activity

City Distance Mag. Time & Date
Minimum magnitude displayed is 2.5.

Coastal Water Temperatures

Place Temperature

Stations

Nearby Weather Stations

Station Location Temp. Windchill Dew Point Humidity Wind Precip. Elev Updated Type